Terminal Aerodrome Forecast
Issued by NWS Missoula, MT

Home | Current Version | Previous Version | Text Only | Print | Product List | Glossary On
Versions: 1 2 3 4 5 6 7 8 9 10 11 12 13 14 15 16 17 18 19 20
139
FTUS45 KMSO 202320
TAFBTM
TAF
KBTM 202320Z 2100/2124 32008KT P6SM VCSH OVC060
     FM210100 30004KT P6SM VCSH OVC080
     FM210900 29009KT P6SM BKN090=

USA.gov is the U.S. government's official web portal to all federal, state and local government web resources and services.